Time;durP1;ratioP1;P1;durP2;ratioP2;P2;SDS_P1;SDS_P2;PMS_P1;PMS_P2;Temp;Humidity;BMP_temperature;BMP_pressure;BME280_temperature;BME280_humidity;BME280_pressure;Samples;Min_cycle;Max_cycle;Signal;HPM_P1;HPM_P2
2022/04/26 03:36:26;;;;;;;4.93;4.53;;;;;;;;;;4969325;28;20799;-59
2022/04/26 03:38:53;;;;;;;4.90;4.50;;;;;;;;;;4969488;28;20210;-59
2022/04/26 03:41:20;;;;;;;5.80;5.20;;;;;;;;;;4967599;28;20202;-59
2022/04/26 03:43:47;;;;;;;4.87;4.47;;;;;;;;;;4968272;28;20602;-59
2022/04/26 03:46:14;;;;;;;5.50;4.90;;;;;;;;;;4968302;28;20230;-59
2022/04/26 03:48:42;;;;;;;5.00;4.60;;;;;;;;;;4968363;28;20206;-58
2022/04/26 03:51:09;;;;;;;5.03;4.63;;;;;;;;;;4968718;28;20297;-59
2022/04/26 03:53:36;;;;;;;5.27;4.70;;;;;;;;;;4968545;28;20810;-59
2022/04/26 03:56:04;;;;;;;5.97;5.20;;;;;;;;;;4968764;28;20202;-59
2022/04/26 03:58:31;;;;;;;5.40;4.90;;;;;;;;;;4968193;28;20213;-59
2022/04/26 04:00:58;;;;;;;5.30;4.80;;;;;;;;;;4967621;28;20198;-59
2022/04/26 04:03:25;;;;;;;5.80;5.13;;;;;;;;;;4967960;28;20214;-59
2022/04/26 04:05:54;;;;;;;5.83;5.20;;;;;;;;;;4968584;28;20236;-59
2022/04/26 04:08:21;;;;;;;6.87;5.53;;;;;;;;;;4967094;28;20234;-59
2022/04/26 04:10:48;;;;;;;6.17;5.20;;;;;;;;;;4968160;28;20212;-59
2022/04/26 04:13:15;;;;;;;9.97;6.00;;;;;;;;;;4966829;28;20213;-59
2022/04/26 04:15:42;;;;;;;10.50;5.67;;;;;;;;;;4968334;28;20673;-59
2022/04/26 04:19:17;;;;;;;5.77;5.17;;;;;;;;;;4967990;28;20210;-59
2022/04/26 04:20:57;;;;;;;6.33;5.40;;;;;;;;;;4968453;28;20220;-59
2022/04/26 04:23:24;;;;;;;5.90;4.97;;;;;;;;;;4966968;28;20281;-59
2022/04/26 04:25:52;;;;;;;5.93;5.20;;;;;;;;;;4968284;28;20227;-59
2022/04/26 04:28:19;;;;;;;7.63;6.03;;;;;;;;;;4968927;28;20214;-59
2022/04/26 04:30:46;;;;;;;5.50;5.00;;;;;;;;;;4965270;28;20214;-59
2022/04/26 04:33:13;;;;;;;6.53;5.87;;;;;;;;;;4968874;28;20260;-59
2022/04/26 04:35:40;;;;;;;7.13;6.13;;;;;;;;;;4968753;28;20206;-59
2022/04/26 04:38:08;;;;;;;6.50;5.60;;;;;;;;;;4968969;28;20267;-59
2022/04/26 04:40:35;;;;;;;6.53;5.40;;;;;;;;;;4968546;28;20273;-59
2022/04/26 04:43:02;;;;;;;6.90;5.83;;;;;;;;;;4969164;28;20217;-59
2022/04/26 04:45:29;;;;;;;6.17;5.07;;;;;;;;;;4968514;28;20226;-59
2022/04/26 04:47:56;;;;;;;5.63;5.03;;;;;;;;;;4964707;28;20622;-59
2022/04/26 04:50:23;;;;;;;5.40;4.87;;;;;;;;;;4964007;28;20214;-59
2022/04/26 04:52:50;;;;;;;5.53;5.03;;;;;;;;;;4967837;28;20231;-59
2022/04/26 04:55:19;;;;;;;5.40;4.90;;;;;;;;;;4968223;28;20265;-59
2022/04/26 04:57:46;;;;;;;6.23;5.27;;;;;;;;;;4968878;28;20265;-58
2022/04/26 05:00:13;;;;;;;5.93;5.40;;;;;;;;;;4962083;28;20210;-59
2022/04/26 05:02:40;;;;;;;5.53;4.83;;;;;;;;;;4968607;28;20660;-59
2022/04/26 05:05:08;;;;;;;7.50;5.23;;;;;;;;;;4968984;28;20268;-59
2022/04/26 05:07:35;;;;;;;8.53;5.67;;;;;;;;;;4968435;28;20210;-59
2022/04/26 05:10:02;;;;;;;5.10;4.60;;;;;;;;;;4969083;28;20234;-59
2022/04/26 05:12:30;;;;;;;6.03;4.77;;;;;;;;;;4968801;28;20214;-59
2022/04/26 05:14:57;;;;;;;6.73;5.20;;;;;;;;;;4969301;28;20210;-59
2022/04/26 05:17:24;;;;;;;7.53;5.53;;;;;;;;;;4969105;28;20198;-59
2022/04/26 05:19:51;;;;;;;6.17;5.57;;;;;;;;;;4965052;28;20214;-59
2022/04/26 05:22:18;;;;;;;6.20;5.13;;;;;;;;;;4969319;28;20214;-59
2022/04/26 05:24:53;;;;;;;6.27;4.93;;;;;;;;;;4969124;28;20699;-59
2022/04/26 05:27:21;;;;;;;5.57;4.67;;;;;;;;;;4956250;28;20313;-59
2022/04/26 05:29:49;;;;;;;5.63;5.07;;;;;;;;;;4968929;28;20300;-59
2022/04/26 05:32:20;;;;;;;7.37;5.37;;;;;;;;;;4969165;28;20210;-59
2022/04/26 05:34:47;;;;;;;6.60;5.83;;;;;;;;;;4968889;28;20307;-59
2022/04/26 05:37:14;;;;;;;5.83;5.23;;;;;;;;;;4968961;28;20218;-59
2022/04/26 05:39:41;;;;;;;7.33;5.40;;;;;;;;;;4968349;28;20198;-59
2022/04/26 05:42:08;;;;;;;5.23;4.73;;;;;;;;;;4968742;28;20261;-59
2022/04/26 05:44:38;;;;;;;8.20;5.73;;;;;;;;;;4966251;28;20250;-59
2022/04/26 05:47:07;;;;;;;7.20;5.47;;;;;;;;;;4968519;28;20229;-59
2022/04/26 05:49:34;;;;;;;6.43;5.70;;;;;;;;;;4968033;28;20245;-60
2022/04/26 05:52:01;;;;;;;7.10;5.97;;;;;;;;;;4965736;28;20210;-59
2022/04/26 05:54:28;;;;;;;7.10;5.70;;;;;;;;;;4968833;28;20218;-60
2022/04/26 05:56:55;;;;;;;7.00;5.47;;;;;;;;;;4968318;28;20320;-59
2022/04/26 05:59:22;;;;;;;7.47;5.50;;;;;;;;;;4968554;28;20876;-59
2022/04/26 06:01:49;;;;;;;7.67;6.07;;;;;;;;;;4968536;28;20217;-60
2022/04/26 06:04:18;;;;;;;7.17;6.00;;;;;;;;;;4968126;28;20265;-58
2022/04/26 06:06:45;;;;;;;7.27;6.23;;;;;;;;;;4968486;28;20226;-59
2022/04/26 06:09:14;;;;;;;8.97;6.03;;;;;;;;;;4968383;28;20289;-59
2022/04/26 06:11:44;;;;;;;7.83;6.20;;;;;;;;;;4963600;28;20284;-58
2022/04/26 06:14:11;;;;;;;9.27;6.83;;;;;;;;;;4968185;28;20203;-59
2022/04/26 06:16:38;;;;;;;8.07;5.97;;;;;;;;;;4950562;28;20219;-58
2022/04/26 06:19:05;;;;;;;6.23;5.63;;;;;;;;;;4957631;28;20221;-59
2022/04/26 06:21:33;;;;;;;9.10;6.20;;;;;;;;;;4972241;28;20210;-59
2022/04/26 06:24:00;;;;;;;9.73;6.57;;;;;;;;;;4972372;28;20207;-58
2022/04/26 06:26:27;;;;;;;10.47;7.17;;;;;;;;;;4972149;28;20238;-59
2022/04/26 06:28:54;;;;;;;7.93;6.43;;;;;;;;;;4971891;28;20222;-59
2022/04/26 06:31:22;;;;;;;9.27;6.53;;;;;;;;;;4971724;28;20211;-60
2022/04/26 06:33:49;;;;;;;7.10;5.90;;;;;;;;;;4972079;28;20288;-60
2022/04/26 06:36:16;;;;;;;6.43;5.80;;;;;;;;;;4972029;28;20669;-59
2022/04/26 06:38:45;;;;;;;9.17;6.60;;;;;;;;;;4972041;28;20219;-60
2022/04/26 06:41:12;;;;;;;9.70;6.50;;;;;;;;;;4971950;28;20265;-59
2022/04/26 06:43:39;;;;;;;6.67;5.77;;;;;;;;;;4971728;28;20218;-59
2022/04/26 06:46:06;;;;;;;10.90;5.77;;;;;;;;;;4971482;28;20245;-59
2022/04/26 06:48:33;;;;;;;6.53;5.50;;;;;;;;;;4972109;28;20297;-59
2022/04/26 06:51:00;;;;;;;6.47;5.50;;;;;;;;;;4971908;28;20589;-59
2022/04/26 06:53:27;;;;;;;7.53;5.03;;;;;;;;;;4971853;28;20214;-60
2022/04/26 06:55:55;;;;;;;6.43;5.20;;;;;;;;;;4971264;28;20217;-59
2022/04/26 06:58:22;;;;;;;6.10;5.20;;;;;;;;;;4971414;28;20455;-59
2022/04/26 07:00:49;;;;;;;5.73;5.27;;;;;;;;;;4971491;28;20677;-59
2022/04/26 07:03:18;;;;;;;5.13;4.70;;;;;;;;;;4971735;28;20664;-59
2022/04/26 07:05:45;;;;;;;5.20;4.80;;;;;;;;;;4971334;28;20234;-59
2022/04/26 07:08:12;;;;;;;5.23;4.73;;;;;;;;;;4971266;28;20330;-59
2022/04/26 07:10:39;;;;;;;7.00;5.57;;;;;;;;;;4971576;28;20210;-59
2022/04/26 07:13:08;;;;;;;5.80;5.27;;;;;;;;;;4971405;28;20225;-59
2022/04/26 07:15:35;;;;;;;6.63;5.37;;;;;;;;;;4971300;28;20218;-59
2022/04/26 07:18:02;;;;;;;6.20;5.60;;;;;;;;;;4971847;28;20269;-59
2022/04/26 07:20:30;;;;;;;4.77;4.37;;;;;;;;;;4971226;28;20214;-60
2022/04/26 07:22:57;;;;;;;6.30;5.30;;;;;;;;;;4971092;28;20269;-59
2022/04/26 07:25:24;;;;;;;5.70;5.17;;;;;;;;;;4971334;28;20252;-60
2022/04/26 07:27:51;;;;;;;5.73;4.83;;;;;;;;;;4970712;28;20273;-59
2022/04/26 07:30:20;;;;;;;5.90;5.30;;;;;;;;;;4970097;28;20707;-59
2022/04/26 07:35:31;;;;;;;5.57;4.83;;;;;;;;;;4968907;28;20224;-60
2022/04/26 07:38:05;;;;;;;5.40;4.90;;;;;;;;;;4963522;28;20202;-60
2022/04/26 07:40:32;;;;;;;5.00;4.50;;;;;;;;;;4969547;28;20660;-60
2022/04/26 07:42:59;;;;;;;5.20;4.50;;;;;;;;;;4965927;28;20239;-60
2022/04/26 07:45:28;;;;;;;5.10;4.60;;;;;;;;;;4960537;28;20215;-60
2022/04/26 07:47:55;;;;;;;5.13;4.33;;;;;;;;;;4969541;28;20237;-61
2022/04/26 07:50:22;;;;;;;4.60;4.20;;;;;;;;;;4969065;28;20298;-59
2022/04/26 07:52:49;;;;;;;5.83;4.50;;;;;;;;;;4969890;28;20218;-58
2022/04/26 07:55:16;;;;;;;5.93;4.10;;;;;;;;;;4969697;28;20214;-60
2022/04/26 07:57:43;;;;;;;4.20;3.87;;;;;;;;;;4969490;28;20214;-58
2022/04/26 08:00:11;;;;;;;3.67;3.37;;;;;;;;;;4969650;28;20327;-60
2022/04/26 08:02:40;;;;;;;3.50;3.30;;;;;;;;;;4968982;28;20237;-59
2022/04/26 08:05:07;;;;;;;2.07;1.67;;;;;;;;;;4969113;28;20716;-59
2022/04/26 08:07:39;;;;;;;1.40;1.40;;;;;;;;;;4969754;28;20241;-59
2022/04/26 08:10:07;;;;;;;1.10;1.10;;;;;;;;;;4986715;28;20237;-61
2022/04/26 08:12:34;;;;;;;1.10;1.00;;;;;;;;;;4968461;28;20265;-61
2022/04/26 08:15:01;;;;;;;1.00;1.00;;;;;;;;;;4969510;28;20913;-61
2022/04/26 08:17:28;;;;;;;0.90;0.90;;;;;;;;;;4950486;29;20289;-59
2022/04/26 08:19:56;;;;;;;0.60;0.60;;;;;;;;;;4949860;29;20230;-60
2022/04/26 08:22:23;;;;;;;0.50;0.50;;;;;;;;;;4977269;28;20629;-60
2022/04/26 08:27:35;;;;;;;0.50;0.50;;;;;;;;;;4961342;28;20244;-60
2022/04/26 08:30:03;;;;;;;0.67;0.67;;;;;;;;;;4959414;28;20211;-61
2022/04/26 08:32:38;;;;;;;0.43;0.43;;;;;;;;;;4950618;28;20928;-59
2022/04/26 08:35:07;;;;;;;0.50;0.50;;;;;;;;;;4968576;28;20218;-61
2022/04/26 08:37:35;;;;;;;0.80;0.60;;;;;;;;;;4969064;28;20733;-61
2022/04/26 08:40:04;;;;;;;0.80;0.80;;;;;;;;;;4971235;28;20202;-60
2022/04/26 08:42:35;;;;;;;0.57;0.57;;;;;;;;;;4967300;28;20217;-61
2022/04/26 08:45:02;;;;;;;0.80;0.80;;;;;;;;;;4980175;28;20315;-63
2022/04/26 08:53:01;;;;;;;0.83;0.83;;;;;;;;;;4972726;28;20320;-58
2022/04/26 08:55:28;;;;;;;0.60;0.60;;;;;;;;;;4966038;28;20224;-60
2022/04/26 08:57:55;;;;;;;0.67;0.67;;;;;;;;;;4972379;28;20225;-60
2022/04/26 09:00:22;;;;;;;0.60;0.60;;;;;;;;;;4968563;28;20221;-60
2022/04/26 09:03:01;;;;;;;0.60;0.60;;;;;;;;;;4966897;28;20218;-60
2022/04/26 09:05:29;;;;;;;0.77;0.77;;;;;;;;;;4971682;28;20775;-59
2022/04/26 09:07:58;;;;;;;0.40;0.40;;;;;;;;;;4981259;28;20735;-62
2022/04/26 09:10:25;;;;;;;3.90;0.70;;;;;;;;;;4971368;28;20237;-59
2022/04/26 09:13:01;;;;;;;0.80;0.80;;;;;;;;;;4967682;28;20241;-60
2022/04/26 09:15:34;;;;;;;0.57;0.57;;;;;;;;;;4979191;28;21028;-62
2022/04/26 09:18:13;;;;;;;1.07;0.80;;;;;;;;;;4968773;28;20799;-62
2022/04/26 09:20:41;;;;;;;0.50;0.50;;;;;;;;;;4968765;28;20206;-62
2022/04/26 09:23:15;;;;;;;0.43;0.43;;;;;;;;;;4972092;28;20210;-60
2022/04/26 09:25:42;;;;;;;0.40;0.40;;;;;;;;;;4968201;28;20202;-61
2022/04/26 09:28:09;;;;;;;0.30;0.30;;;;;;;;;;4969800;28;20234;-62
2022/04/26 09:30:37;;;;;;;0.53;0.53;;;;;;;;;;4971950;28;20202;-62
2022/04/26 09:33:04;;;;;;;0.40;0.40;;;;;;;;;;4976082;28;20647;-61
2022/04/26 09:35:32;;;;;;;0.43;0.40;;;;;;;;;;4968434;28;20363;-62
2022/04/26 09:38:00;;;;;;;0.60;0.40;;;;;;;;;;4975513;28;20632;-60
2022/04/26 09:40:29;;;;;;;0.30;0.30;;;;;;;;;;4973074;28;20206;-59
2022/04/26 09:42:56;;;;;;;0.37;0.37;;;;;;;;;;4967019;28;20314;-60
2022/04/26 09:45:23;;;;;;;0.30;0.30;;;;;;;;;;4968703;28;20203;-60
2022/04/26 09:47:51;;;;;;;0.30;0.30;;;;;;;;;;4968785;28;20743;-61
2022/04/26 09:50:18;;;;;;;0.20;0.20;;;;;;;;;;4987708;28;20241;-61
2022/04/26 09:52:45;;;;;;;0.20;0.20;;;;;;;;;;4980353;28;20214;-62
2022/04/26 09:55:14;;;;;;;0.10;0.10;;;;;;;;;;4981602;28;20284;-61
2022/04/26 09:57:43;;;;;;;0.13;0.13;;;;;;;;;;4972670;28;20301;-62
2022/04/26 10:00:11;;;;;;;0.30;0.30;;;;;;;;;;4974647;28;20206;-62
2022/04/26 10:02:39;;;;;;;0.30;0.30;;;;;;;;;;4974873;28;20337;-62
2022/04/26 10:05:07;;;;;;;0.50;0.50;;;;;;;;;;4972602;28;20313;-62
2022/04/26 10:07:36;;;;;;;0.50;0.50;;;;;;;;;;4972706;28;20317;-62
2022/04/26 10:10:04;;;;;;;1.50;1.40;;;;;;;;;;4972762;28;20238;-61
2022/04/26 10:12:33;;;;;;;2.70;2.50;;;;;;;;;;4972929;28;20217;-61
2022/04/26 10:15:01;;;;;;;0.60;0.60;;;;;;;;;;4972640;28;20214;-61
2022/04/26 10:17:32;;;;;;;0.40;0.40;;;;;;;;;;4972282;28;20292;-61
2022/04/26 10:19:59;;;;;;;1.67;1.67;;;;;;;;;;4972417;28;20214;-61
2022/04/26 10:22:45;;;;;;;0.83;0.83;;;;;;;;;;4972316;28;20219;-61
2022/04/26 10:25:13;;;;;;;0.32;0.32;;;;;;;;;;4983182;28;20224;-60
2022/04/26 10:27:41;;;;;;;0.40;0.40;;;;;;;;;;4986996;28;20241;-60
2022/04/26 10:30:08;;;;;;;0.57;0.57;;;;;;;;;;4971876;28;20202;-61
2022/04/26 10:32:38;;;;;;;4.03;3.70;;;;;;;;;;4971748;28;20218;-61
2022/04/26 10:35:24;;;;;;;1.25;0.82;;;;;;;;;;4971949;28;20215;-61
2022/04/26 10:38:09;;;;;;;4.07;3.77;;;;;;;;;;4972211;28;20206;-59
2022/04/26 10:40:51;;;;;;;0.85;0.85;;;;;;;;;;4972187;28;20207;-58
2022/04/26 10:43:19;;;;;;;0.50;0.50;;;;;;;;;;4972170;28;20225;-59
2022/04/26 10:46:01;;;;;;;0.90;0.90;;;;;;;;;;4972008;28;20214;-60
2022/04/26 10:48:28;;;;;;;0.88;0.88;;;;;;;;;;4971738;28;20226;-61
2022/04/26 10:50:55;;;;;;;2.92;2.83;;;;;;;;;;4971517;28;20210;-62
2022/04/26 10:53:37;;;;;;;1.50;0.70;;;;;;;;;;4972421;28;20213;-69
2022/04/26 10:56:04;;;;;;;0.80;0.80;;;;;;;;;;4965844;28;20214;-61
2022/04/26 10:58:33;;;;;;;0.50;0.50;;;;;;;;;;4971408;28;20286;-60
2022/04/26 11:01:00;;;;;;;0.57;0.57;;;;;;;;;;4972174;28;20214;-63
2022/04/26 11:03:27;;;;;;;0.40;0.40;;;;;;;;;;4955207;28;20218;-61
2022/04/26 11:05:54;;;;;;;0.27;0.13;;;;;;;;;;4970601;28;20249;-60
2022/04/26 11:08:21;;;;;;;0.30;0.30;;;;;;;;;;4970954;28;20238;-62
2022/04/26 11:11:07;;;;;;;0.30;0.30;;;;;;;;;;4970459;28;20207;-63
2022/04/26 11:13:36;;;;;;;0.40;0.40;;;;;;;;;;4970437;28;20257;-61
2022/04/26 11:16:12;;;;;;;0.40;0.40;;;;;;;;;;4971292;28;20206;-60
2022/04/26 11:18:42;;;;;;;0.43;0.40;;;;;;;;;;4971269;28;20664;-60
2022/04/26 11:21:09;;;;;;;0.40;0.40;;;;;;;;;;4970581;28;20257;-58
2022/04/26 11:29:27;;;;;;;0.50;0.50;;;;;;;;;;4970850;28;20763;-66
2022/04/26 11:31:55;;;;;;;0.50;0.50;;;;;;;;;;4970534;28;20202;-61
2022/04/26 11:34:37;;;;;;;0.50;0.50;;;;;;;;;;4970710;28;20226;-59
2022/04/26 11:37:04;;;;;;;0.30;0.30;;;;;;;;;;4970770;28;20226;-61
2022/04/26 11:39:33;;;;;;;0.30;0.30;;;;;;;;;;4969239;28;20207;-63
2022/04/26 11:42:00;;;;;;;0.20;0.20;;;;;;;;;;4964616;28;20258;-59
2022/04/26 11:44:29;;;;;;;0.67;0.60;;;;;;;;;;4963808;28;20222;-61
2022/04/26 11:46:59;;;;;;;0.67;0.50;;;;;;;;;;4968396;28;20206;-64
2022/04/26 11:49:38;;;;;;;0.50;0.50;;;;;;;;;;4967372;28;20532;-62
2022/04/26 11:52:06;;;;;;;0.30;0.30;;;;;;;;;;4964137;28;20208;-59
2022/04/26 11:54:36;;;;;;;0.47;0.47;;;;;;;;;;4967354;28;20210;-59
2022/04/26 11:57:04;;;;;;;0.33;0.33;;;;;;;;;;4967094;28;20289;-59
2022/04/26 11:59:33;;;;;;;0.60;0.60;;;;;;;;;;4966552;28;20211;-59
2022/04/26 12:02:00;;;;;;;0.20;0.20;;;;;;;;;;4966996;28;20650;-60
2022/04/26 12:04:28;;;;;;;0.40;0.40;;;;;;;;;;4966943;28;20210;-60
2022/04/26 12:06:57;;;;;;;0.57;0.57;;;;;;;;;;4966772;28;20671;-59
2022/04/26 12:09:26;;;;;;;1.03;0.77;;;;;;;;;;4975367;28;20234;-59
2022/04/26 12:12:02;;;;;;;0.93;0.93;;;;;;;;;;4967358;28;20517;-59
2022/04/26 12:14:29;;;;;;;0.87;0.87;;;;;;;;;;4968026;28;20217;-59
2022/04/26 12:16:59;;;;;;;0.80;0.80;;;;;;;;;;4983852;28;20588;-60
2022/04/26 12:19:36;;;;;;;0.90;0.90;;;;;;;;;;4956767;28;20237;-59
2022/04/26 12:22:03;;;;;;;1.40;1.40;;;;;;;;;;4967209;28;20217;-60
2022/04/26 12:24:31;;;;;;;1.37;1.37;;;;;;;;;;4969409;28;20217;-60
2022/04/26 12:26:59;;;;;;;1.43;1.33;;;;;;;;;;4967035;28;20214;-62
2022/04/26 12:29:27;;;;;;;1.70;1.70;;;;;;;;;;4966950;28;20261;-59
2022/04/26 12:31:54;;;;;;;1.17;1.17;;;;;;;;;;4983839;28;20211;-59
2022/04/26 12:34:23;;;;;;;1.73;1.47;;;;;;;;;;4976679;28;20205;-60
2022/04/26 12:36:54;;;;;;;1.50;1.50;;;;;;;;;;4966825;28;20222;-62
2022/04/26 12:39:21;;;;;;;1.50;1.50;;;;;;;;;;4966812;28;20203;-60
2022/04/26 12:41:50;;;;;;;1.13;1.13;;;;;;;;;;4971722;28;20735;-60
2022/04/26 12:44:17;;;;;;;0.97;0.97;;;;;;;;;;4986047;28;20260;-60
2022/04/26 12:52:31;;;;;;;1.17;1.17;;;;;;;;;;4967771;28;20550;-61
2022/04/26 12:54:58;;;;;;;0.70;0.70;;;;;;;;;;4966502;28;20236;-61
2022/04/26 12:57:25;;;;;;;1.00;1.00;;;;;;;;;;4966677;28;20210;-61
2022/04/26 12:59:52;;;;;;;0.90;0.90;;;;;;;;;;4963453;28;20210;-61
2022/04/26 13:02:19;;;;;;;0.73;0.73;;;;;;;;;;4967935;28;20281;-61
2022/04/26 13:04:47;;;;;;;0.70;0.70;;;;;;;;;;4966806;28;20309;-61
2022/04/26 13:07:14;;;;;;;0.40;0.40;;;;;;;;;;4966220;28;20273;-61
2022/04/26 13:09:41;;;;;;;0.40;0.40;;;;;;;;;;4958243;28;20569;-61
2022/04/26 13:12:09;;;;;;;0.30;0.30;;;;;;;;;;4958850;28;20241;-61
2022/04/26 13:14:36;;;;;;;0.50;0.50;;;;;;;;;;4957185;28;20207;-60
2022/04/26 13:17:04;;;;;;;0.57;0.57;;;;;;;;;;4958283;28;20258;-61
2022/04/26 13:19:31;;;;;;;0.40;0.40;;;;;;;;;;4958334;28;20358;-61
2022/04/26 13:22:00;;;;;;;0.40;0.40;;;;;;;;;;4956553;28;20206;-61
2022/04/26 13:24:30;;;;;;;0.50;0.50;;;;;;;;;;4956223;28;20260;-61
2022/04/26 13:26:57;;;;;;;0.30;0.30;;;;;;;;;;4957136;28;20206;-61
2022/04/26 13:29:24;;;;;;;0.43;0.43;;;;;;;;;;4959649;28;20340;-61
2022/04/26 13:31:51;;;;;;;0.40;0.40;;;;;;;;;;4954952;28;20269;-61
2022/04/26 13:34:18;;;;;;;1.90;0.60;;;;;;;;;;4954855;28;20250;-61
2022/04/26 13:36:46;;;;;;;0.77;0.77;;;;;;;;;;4958439;28;20206;-61
2022/04/26 13:39:14;;;;;;;0.80;0.80;;;;;;;;;;4957352;28;20294;-61
2022/04/26 13:41:41;;;;;;;0.77;0.77;;;;;;;;;;4956784;28;20209;-61
2022/04/26 13:44:08;;;;;;;1.37;0.73;;;;;;;;;;4958042;28;20305;-61
2022/04/26 13:46:35;;;;;;;1.00;1.00;;;;;;;;;;4955556;28;20275;-61
2022/04/26 13:49:03;;;;;;;1.23;1.00;;;;;;;;;;4957149;28;20384;-63
2022/04/26 13:51:30;;;;;;;0.80;0.80;;;;;;;;;;4955165;28;20525;-62
2022/04/26 13:53:57;;;;;;;0.50;0.50;;;;;;;;;;4956518;28;20203;-62
2022/04/26 13:56:26;;;;;;;0.80;0.80;;;;;;;;;;4956588;28;20230;-62
2022/04/26 13:58:53;;;;;;;0.97;0.97;;;;;;;;;;4955979;28;20463;-62
2022/04/26 14:01:22;;;;;;;1.17;1.07;;;;;;;;;;4961439;28;20210;-61
2022/04/26 14:03:50;;;;;;;0.80;0.80;;;;;;;;;;4957601;28;20590;-62
2022/04/26 14:06:18;;;;;;;0.77;0.77;;;;;;;;;;4956439;28;20313;-61
2022/04/26 14:08:48;;;;;;;1.20;1.20;;;;;;;;;;4955781;28;20230;-61
2022/04/26 14:11:16;;;;;;;1.00;0.97;;;;;;;;;;4957663;28;20211;-62
2022/04/26 14:21:58;;;;;;;0.60;0.60;;;;;;;;;;4965382;28;20224;-62
2022/04/26 14:24:25;;;;;;;1.80;0.77;;;;;;;;;;4966267;28;20242;-62
2022/04/26 14:26:53;;;;;;;1.00;1.00;;;;;;;;;;4965774;28;20214;-61
2022/04/26 14:29:21;;;;;;;0.90;0.90;;;;;;;;;;4965524;28;20293;-59
2022/04/26 14:31:51;;;;;;;1.03;1.03;;;;;;;;;;4955563;28;20708;-60
2022/04/26 14:34:18;;;;;;;1.00;1.00;;;;;;;;;;4965310;28;20203;-60
2022/04/26 14:36:45;;;;;;;0.93;0.93;;;;;;;;;;4965674;28;20225;-60
2022/04/26 14:39:13;;;;;;;1.10;1.10;;;;;;;;;;4967389;28;20202;-60
2022/04/26 14:41:40;;;;;;;1.10;1.10;;;;;;;;;;4969591;28;20212;-61
2022/04/26 14:44:07;;;;;;;2.30;1.60;;;;;;;;;;4969230;28;20205;-60
2022/04/26 14:46:36;;;;;;;2.27;2.07;;;;;;;;;;4962803;28;20293;-59
2022/04/26 14:49:03;;;;;;;1.57;1.57;;;;;;;;;;4954997;28;20700;-59
2022/04/26 14:51:30;;;;;;;1.80;1.73;;;;;;;;;;4969041;28;20228;-59
2022/04/26 14:53:57;;;;;;;1.90;1.80;;;;;;;;;;4969221;28;20255;-60
2022/04/26 14:56:25;;;;;;;1.80;1.70;;;;;;;;;;4967199;28;20258;-59
2022/04/26 14:58:52;;;;;;;2.10;2.00;;;;;;;;;;4970029;28;20241;-61
2022/04/26 15:01:19;;;;;;;2.00;1.90;;;;;;;;;;4969903;28;20223;-59
2022/04/26 15:03:47;;;;;;;2.70;2.60;;;;;;;;;;4970063;28;20218;-60
2022/04/26 15:06:14;;;;;;;2.40;2.30;;;;;;;;;;4959699;28;20234;-60
2022/04/26 15:11:26;;;;;;;2.40;2.30;;;;;;;;;;4978390;28;20212;-61
2022/04/26 15:16:42;;;;;;;3.67;2.63;;;;;;;;;;4950708;29;20785;-60
2022/04/26 15:19:11;;;;;;;2.77;2.57;;;;;;;;;;4962193;28;20195;-61
2022/04/26 15:21:38;;;;;;;2.30;2.10;;;;;;;;;;4969268;28;20321;-60
2022/04/26 15:24:06;;;;;;;3.43;2.47;;;;;;;;;;4969310;28;20234;-61
2022/04/26 15:26:34;;;;;;;3.07;2.80;;;;;;;;;;4969649;28;20620;-60
2022/04/26 15:29:01;;;;;;;2.70;2.30;;;;;;;;;;4969240;28;20281;-61
2022/04/26 15:31:28;;;;;;;2.43;2.33;;;;;;;;;;4969514;28;20212;-61
2022/04/26 15:33:55;;;;;;;3.13;2.90;;;;;;;;;;4969237;28;20214;-61
2022/04/26 15:36:24;;;;;;;2.60;2.43;;;;;;;;;;4960712;28;20231;-61
2022/04/26 15:38:56;;;;;;;2.57;2.43;;;;;;;;;;4959532;28;20313;-61
2022/04/26 15:41:25;;;;;;;2.57;2.43;;;;;;;;;;4973444;28;20269;-61
2022/04/26 15:43:52;;;;;;;5.47;2.87;;;;;;;;;;4963779;28;20301;-61
2022/04/26 15:46:19;;;;;;;2.93;2.73;;;;;;;;;;4967900;28;20206;-59
2022/04/26 15:48:48;;;;;;;2.80;2.70;;;;;;;;;;4967834;28;20227;-60
2022/04/26 15:51:16;;;;;;;2.60;2.43;;;;;;;;;;4967705;28;20245;-60
2022/04/26 15:53:46;;;;;;;3.47;3.03;;;;;;;;;;4967532;28;20297;-60
2022/04/26 15:56:13;;;;;;;3.23;2.80;;;;;;;;;;4968184;28;20336;-60
2022/04/26 15:58:40;;;;;;;2.93;2.73;;;;;;;;;;4967601;28;20209;-60
2022/04/26 16:01:08;;;;;;;2.93;2.73;;;;;;;;;;4963403;28;20206;-60
2022/04/26 16:03:35;;;;;;;2.90;2.67;;;;;;;;;;4966721;28;20283;-60
2022/04/26 16:06:02;;;;;;;2.23;2.13;;;;;;;;;;4964757;28;20378;-60
2022/04/26 16:08:32;;;;;;;3.13;2.77;;;;;;;;;;4967597;28;20283;-61
2022/04/26 16:22:00;;;;;;;2.80;2.60;;;;;;;;;;4964052;28;20296;-60
2022/04/26 16:24:27;;;;;;;3.23;2.93;;;;;;;;;;4968199;28;20270;-60
2022/04/26 16:26:55;;;;;;;3.20;2.90;;;;;;;;;;4966131;28;20229;-61
2022/04/26 16:29:23;;;;;;;3.13;2.90;;;;;;;;;;4966818;28;20245;-79
2022/04/26 16:31:50;;;;;;;2.13;2.03;;;;;;;;;;4968123;28;20289;-65
2022/04/26 16:34:17;;;;;;;2.07;1.97;;;;;;;;;;4968222;28;20575;-60
2022/04/26 16:36:45;;;;;;;2.70;2.60;;;;;;;;;;4956620;28;20198;-59
2022/04/26 16:39:13;;;;;;;2.37;2.17;;;;;;;;;;4961543;28;20199;-60
2022/04/26 16:41:40;;;;;;;2.40;2.30;;;;;;;;;;4953400;28;20664;-61
2022/04/26 16:44:08;;;;;;;3.00;2.73;;;;;;;;;;4969641;28;20304;-62
2022/04/26 16:46:36;;;;;;;3.20;3.00;;;;;;;;;;4976771;28;20678;-60
2022/04/26 16:49:04;;;;;;;3.53;1.83;;;;;;;;;;4968065;28;20349;-59
2022/04/26 16:51:34;;;;;;;2.90;2.70;;;;;;;;;;4966890;28;20202;-60
2022/04/26 16:54:01;;;;;;;1.13;1.13;;;;;;;;;;4968392;28;20589;-59
2022/04/26 16:56:28;;;;;;;3.67;2.43;;;;;;;;;;4966665;28;20217;-59
2022/04/26 16:58:55;;;;;;;1.13;1.13;;;;;;;;;;4967877;28;20210;-59
2022/04/26 17:01:23;;;;;;;2.17;2.03;;;;;;;;;;4966100;28;20409;-59
2022/04/26 17:03:51;;;;;;;2.30;2.20;;;;;;;;;;4967373;28;20261;-59
2022/04/26 17:06:18;;;;;;;2.53;2.30;;;;;;;;;;4967199;28;20223;-60
2022/04/26 17:08:45;;;;;;;13.53;2.03;;;;;;;;;;4967828;28;20323;-59
2022/04/26 17:13:57;;;;;;;3.40;3.10;;;;;;;;;;4967922;28;21083;-58
2022/04/26 17:16:25;;;;;;;2.57;2.37;;;;;;;;;;4966136;28;20289;-60
2022/04/26 17:18:52;;;;;;;2.53;2.33;;;;;;;;;;4957065;28;20362;-60
2022/04/26 17:21:20;;;;;;;1.70;1.60;;;;;;;;;;4955161;28;20214;-60
2022/04/26 17:23:47;;;;;;;1.30;1.27;;;;;;;;;;4965757;28;20208;-61
2022/04/26 17:26:14;;;;;;;0.93;0.93;;;;;;;;;;4967692;28;20214;-61
2022/04/26 17:28:42;;;;;;;0.90;0.90;;;;;;;;;;4966052;28;20636;-60
2022/04/26 17:31:09;;;;;;;0.90;0.90;;;;;;;;;;4968017;28;20241;-60
2022/04/26 17:33:39;;;;;;;1.90;1.80;;;;;;;;;;4967908;28;20217;-60
2022/04/26 17:36:06;;;;;;;1.37;1.37;;;;;;;;;;4967632;28;20210;-60
2022/04/26 17:38:33;;;;;;;1.07;1.07;;;;;;;;;;4967879;28;20616;-60
2022/04/26 17:41:01;;;;;;;1.20;1.20;;;;;;;;;;4967162;28;20805;-60
2022/04/26 17:43:28;;;;;;;2.13;2.03;;;;;;;;;;4967709;28;20313;-60
2022/04/26 17:45:55;;;;;;;2.10;2.00;;;;;;;;;;4967398;28;20715;-61
2022/04/26 17:48:22;;;;;;;1.27;1.27;;;;;;;;;;4967941;28;20313;-60
2022/04/26 17:50:51;;;;;;;1.50;1.30;;;;;;;;;;4966825;28;20289;-66
2022/04/26 17:58:48;;;;;;;1.07;1.07;;;;;;;;;;4963068;28;20294;-60
2022/04/26 18:01:16;;;;;;;1.73;1.60;;;;;;;;;;4965932;28;20198;-60
2022/04/26 18:03:43;;;;;;;1.00;1.00;;;;;;;;;;4966706;28;20480;-60
2022/04/26 18:06:12;;;;;;;1.30;1.30;;;;;;;;;;4966402;28;20297;-60
2022/04/26 18:08:39;;;;;;;0.90;0.90;;;;;;;;;;4966172;28;20245;-60
2022/04/26 18:11:08;;;;;;;1.23;1.23;;;;;;;;;;4965534;28;20222;-60
2022/04/26 18:13:36;;;;;;;0.80;0.80;;;;;;;;;;4957380;28;20211;-60
2022/04/26 18:16:04;;;;;;;0.90;0.90;;;;;;;;;;4968063;28;20612;-60
2022/04/26 18:18:32;;;;;;;2.17;2.07;;;;;;;;;;4969531;28;20210;-60
2022/04/26 18:20:59;;;;;;;1.30;1.30;;;;;;;;;;4970341;28;22097;-60
2022/04/26 18:23:28;;;;;;;1.30;1.30;;;;;;;;;;4970238;28;20696;-60
2022/04/26 18:26:11;;;;;;;1.70;1.60;;;;;;;;;;4970078;28;20207;-59
2022/04/26 18:28:39;;;;;;;2.10;1.87;;;;;;;;;;4970265;28;20210;-59
2022/04/26 18:31:06;;;;;;;1.90;1.80;;;;;;;;;;4969598;28;20265;-61
2022/04/26 18:33:33;;;;;;;2.40;2.10;;;;;;;;;;4968664;28;20221;-61
2022/04/26 18:36:00;;;;;;;2.70;1.80;;;;;;;;;;4968302;28;20583;-59
2022/04/26 18:38:28;;;;;;;2.03;1.93;;;;;;;;;;4967679;28;20697;-61
2022/04/26 18:40:58;;;;;;;2.00;1.80;;;;;;;;;;4969551;28;20720;-60
2022/04/26 18:43:25;;;;;;;2.23;1.90;;;;;;;;;;4960910;28;20259;-61
2022/04/26 18:45:52;;;;;;;1.97;1.93;;;;;;;;;;4967444;28;20269;-60
2022/04/26 18:48:19;;;;;;;1.63;1.60;;;;;;;;;;4970246;28;20276;-61
2022/04/26 18:50:46;;;;;;;2.20;2.10;;;;;;;;;;4969957;28;20223;-60
2022/04/26 18:53:14;;;;;;;2.10;1.90;;;;;;;;;;4969449;28;20249;-61
2022/04/26 18:55:43;;;;;;;2.50;1.40;;;;;;;;;;4969069;28;20900;-60
2022/04/26 18:58:11;;;;;;;2.20;2.10;;;;;;;;;;4968202;28;20908;-61
2022/04/26 19:00:38;;;;;;;1.40;1.40;;;;;;;;;;4969452;28;20212;-60
2022/04/26 19:03:05;;;;;;;2.23;2.13;;;;;;;;;;4952482;28;20210;-61
2022/04/26 19:05:33;;;;;;;2.60;2.50;;;;;;;;;;4978551;28;20222;-60
2022/04/26 19:08:00;;;;;;;2.73;2.63;;;;;;;;;;4970999;28;20265;-63
2022/04/26 19:13:14;;;;;;;2.30;2.10;;;;;;;;;;4976396;28;20213;-60
2022/04/26 19:15:41;;;;;;;2.13;2.03;;;;;;;;;;4970098;28;20248;-61
2022/04/26 19:18:09;;;;;;;1.73;1.67;;;;;;;;;;4974000;28;20207;-60
2022/04/26 19:20:37;;;;;;;2.13;2.03;;;;;;;;;;4969955;28;20206;-60
2022/04/26 19:23:05;;;;;;;2.27;2.17;;;;;;;;;;4969196;28;20215;-60